Time;durP1;ratioP1;P1;durP2;ratioP2;P2;SDS_P1;SDS_P2;PMS_P1;PMS_P2;Temp;Humidity;BMP_temperature;BMP_pressure;BME280_temperature;BME280_humidity;BME280_pressure;Samples;Min_cycle;Max_cycle;Signal;HPM_P1;HPM_P2
2023/05/02 00:01:18;;;;;;;27.13;9.13;;;7.50;84.30;;;;;;4996938;28;20053;-78
2023/05/02 00:03:45;;;;;;;18.55;9.43;;;7.50;84.20;;;;;;4991905;28;20369;-78
2023/05/02 00:06:12;;;;;;;18.88;8.30;;;7.40;84.90;;;;;;5001197;28;20104;-78
2023/05/02 00:08:39;;;;;;;24.83;8.50;;;7.40;85.00;;;;;;4993010;28;20050;-78
2023/05/02 00:11:06;;;;;;;29.52;8.63;;;7.40;85.30;;;;;;5003775;28;20052;-78
2023/05/02 00:13:33;;;;;;;16.52;7.75;;;7.30;85.60;;;;;;4991332;28;20054;-78
2023/05/02 00:16:00;;;;;;;19.38;8.05;;;7.40;85.10;;;;;;4998052;28;20449;-78
2023/05/02 00:18:27;;;;;;;19.15;8.05;;;7.40;85.20;;;;;;4995719;28;20060;-78
2023/05/02 00:20:55;;;;;;;23.25;7.88;;;7.50;84.80;;;;;;4993703;28;20056;-78
2023/05/02 00:23:22;;;;;;;13.93;7.95;;;7.50;84.50;;;;;;4995267;28;20057;-78
2023/05/02 00:25:49;;;;;;;24.38;8.38;;;7.60;84.60;;;;;;4994625;28;20254;-78
2023/05/02 00:28:17;;;;;;;22.33;7.28;;;7.70;84.50;;;;;;5003979;28;20143;-78
2023/05/02 00:30:45;;;;;;;17.23;7.78;;;7.80;83.40;;;;;;4998008;28;20048;-78
2023/05/02 00:33:13;;;;;;;14.48;7.32;;;7.80;84.00;;;;;;4990422;28;20065;-78
2023/05/02 00:35:40;;;;;;;17.55;6.93;;;8.00;83.20;;;;;;4987681;28;20485;-78
2023/05/02 00:38:07;;;;;;;18.48;6.78;;;8.00;83.70;;;;;;4999132;28;20568;-79
2023/05/02 00:40:47;;;;;;;12.48;6.40;;;8.10;83.30;;;;;;4986164;28;20141;-78
2023/05/02 00:43:15;;;;;;;12.30;6.43;;;8.10;83.50;;;;;;4995838;28;20076;-78
2023/05/02 00:45:45;;;;;;;14.60;6.75;;;8.10;82.70;;;;;;4982907;28;20058;-78
2023/05/02 00:48:12;;;;;;;15.23;6.25;;;8.10;82.70;;;;;;4993585;28;20413;-78
2023/05/02 00:50:41;;;;;;;12.10;5.82;;;8.20;82.70;;;;;;4996655;28;20047;-78
2023/05/02 00:53:11;;;;;;;15.95;6.18;;;8.20;82.00;;;;;;4994777;28;20177;-79
2023/05/02 00:55:37;;;;;;;13.73;7.43;;;8.20;83.20;;;;;;4994176;28;20053;-78
2023/05/02 00:58:07;;;;;;;21.13;6.97;;;8.20;83.00;;;;;;4994260;28;20046;-78
2023/05/02 01:00:47;;;;;;;15.40;6.50;;;8.20;83.70;;;;;;4998256;28;20042;-79
2023/05/02 01:03:42;;;;;;;14.90;6.80;;;8.20;82.80;;;;;;4997774;28;20046;-78
2023/05/02 01:06:09;;;;;;;19.27;6.45;;;8.30;82.10;;;;;;4974394;28;20041;-78
2023/05/02 01:08:51;;;;;;;11.05;5.95;;;8.30;82.30;;;;;;5004365;28;20517;-79
2023/05/02 01:11:46;;;;;;;13.80;5.85;;;8.30;82.30;;;;;;5001694;28;20427;-78
2023/05/02 01:14:14;;;;;;;19.75;6.93;;;8.30;82.20;;;;;;4991681;28;20045;-78
2023/05/02 01:16:44;;;;;;;12.07;6.22;;;8.40;82.70;;;;;;4997807;28;20054;-79
2023/05/02 01:19:35;;;;;;;15.63;6.70;;;8.40;82.60;;;;;;5002411;28;20046;-78
2023/05/02 01:22:06;;;;;;;18.85;6.22;;;8.30;82.20;;;;;;5000105;28;20137;-78
2023/05/02 01:25:01;;;;;;;15.55;7.10;;;8.30;82.30;;;;;;5001459;28;20060;-78
2023/05/02 01:27:47;;;;;;;15.57;6.20;;;8.30;81.90;;;;;;5002271;28;20521;-79
2023/05/02 01:30:16;;;;;;;15.88;6.28;;;8.20;82.20;;;;;;5003166;28;20049;-78
2023/05/02 01:32:46;;;;;;;23.23;6.15;;;8.20;82.80;;;;;;4997724;28;20445;-78
2023/05/02 01:35:17;;;;;;;19.13;7.28;;;8.30;81.80;;;;;;4996738;28;20546;-78
2023/05/02 01:37:45;;;;;;;17.80;7.30;;;8.30;81.60;;;;;;5002603;28;20498;-78
2023/05/02 01:40:16;;;;;;;19.25;6.63;;;8.30;81.40;;;;;;5003165;28;20057;-78
2023/05/02 01:42:45;;;;;;;16.88;7.20;;;8.30;81.30;;;;;;4994744;28;20049;-78
2023/05/02 01:45:13;;;;;;;20.90;7.68;;;8.30;81.30;;;;;;4997647;28;20129;-78
2023/05/02 01:47:42;;;;;;;18.48;7.47;;;8.20;81.30;;;;;;4993518;28;20054;-78
2023/05/02 01:50:15;;;;;;;13.38;7.53;;;8.20;82.00;;;;;;4992979;28;20050;-78
2023/05/02 01:52:44;;;;;;;24.25;8.18;;;8.20;81.50;;;;;;5001671;28;20046;-78
2023/05/02 01:55:14;;;;;;;20.60;8.15;;;8.10;82.20;;;;;;5004010;28;20057;-78
2023/05/02 01:57:43;;;;;;;15.68;7.63;;;8.00;82.20;;;;;;5001103;28;20073;-78
2023/05/02 02:00:11;;;;;;;15.48;7.60;;;7.90;82.70;;;;;;5000956;28;20058;-78
2023/05/02 02:02:44;;;;;;;24.30;9.85;;;7.90;82.90;;;;;;5012101;28;20772;-78
2023/05/02 02:05:13;;;;;;;26.95;9.35;;;7.80;83.20;;;;;;4998141;28;20056;-79
2023/05/02 02:07:39;;;;;;;17.95;8.43;;;7.70;82.90;;;;;;4992362;28;20431;-78
2023/05/02 02:10:07;;;;;;;22.40;9.52;;;7.70;83.80;;;;;;5001663;28;20045;-78
2023/05/02 02:13:06;;;;;;;16.20;8.05;;;7.60;83.70;;;;;;4994653;28;20065;-78
2023/05/02 02:15:36;;;;;;;22.23;9.05;;;7.60;84.30;;;;;;4982301;28;20062;-78
2023/05/02 02:18:12;;;;;;;20.50;9.50;;;7.60;84.70;;;;;;5003471;28;20050;-78
2023/05/02 02:20:42;;;;;;;20.77;9.80;;;7.50;85.50;;;;;;5000617;28;20491;-78
2023/05/02 02:23:10;;;;;;;26.15;9.77;;;7.50;85.30;;;;;;4994190;28;20061;-78
2023/05/02 02:25:38;;;;;;;17.17;8.90;;;7.50;85.20;;;;;;4997952;28;20053;-78
2023/05/02 02:28:06;;;;;;;29.55;10.73;;;7.40;85.70;;;;;;4992530;28;20076;-78
2023/05/02 02:30:33;;;;;;;32.25;10.27;;;7.50;86.10;;;;;;4999084;28;20053;-78
2023/05/02 02:33:00;;;;;;;21.63;9.65;;;7.40;85.70;;;;;;5000611;28;20061;-78
2023/05/02 02:35:52;;;;;;;20.23;9.43;;;7.50;85.90;;;;;;5000186;28;20073;-79
2023/05/02 02:38:45;;;;;;;18.25;8.85;;;7.40;85.70;;;;;;4998933;28;20380;-78
2023/05/02 02:41:21;;;;;;;23.17;10.00;;;7.50;86.60;;;;;;4998630;28;20057;-79
2023/05/02 02:44:04;;;;;;;24.88;10.48;;;7.50;86.30;;;;;;4992372;28;20054;-78
2023/05/02 02:46:53;;;;;;;25.73;10.88;;;7.50;86.60;;;;;;4985244;28;20046;-78
2023/05/02 02:49:36;;;;;;;21.70;9.55;;;7.50;86.90;;;;;;4999635;28;20066;-78
2023/05/02 02:52:03;;;;;;;26.67;10.68;;;7.50;87.20;;;;;;4992775;28;20051;-78
2023/05/02 02:54:45;;;;;;;27.45;12.00;;;7.50;87.80;;;;;;4998148;28;20053;-78
2023/05/02 02:57:34;;;;;;;33.67;13.45;;;7.60;87.80;;;;;;4988411;28;20053;-79
2023/05/02 03:00:04;;;;;;;23.65;12.23;;;7.80;87.60;;;;;;4991977;28;20045;-79
2023/05/02 03:02:32;;;;;;;33.42;14.60;;;8.00;87.60;;;;;;5000325;28;20279;-78
2023/05/02 03:05:01;;;;;;;30.00;13.02;;;8.10;87.60;;;;;;4995764;28;20057;-78
2023/05/02 03:07:28;;;;;;;36.65;12.55;;;8.20;87.10;;;;;;4998835;28;20094;-78
2023/05/02 03:09:55;;;;;;;26.77;13.10;;;8.30;87.20;;;;;;5002626;28;20056;-78
2023/05/02 03:12:22;;;;;;;42.33;14.73;;;8.40;87.20;;;;;;4995538;28;20049;-79
2023/05/02 03:14:50;;;;;;;24.77;12.48;;;8.50;87.30;;;;;;4997209;28;20042;-78
2023/05/02 03:17:16;;;;;;;30.63;14.07;;;8.50;87.50;;;;;;5000396;28;20042;-78
2023/05/02 03:19:43;;;;;;;32.53;13.38;;;8.60;87.70;;;;;;5000440;28;20136;-79
2023/05/02 03:22:10;;;;;;;36.45;14.52;;;8.70;87.20;;;;;;5000236;28;20065;-79
2023/05/02 03:24:37;;;;;;;39.17;13.38;;;8.80;87.50;;;;;;4998615;28;20054;-79
2023/05/02 03:27:04;;;;;;;27.25;12.57;;;8.90;87.80;;;;;;4992716;28;20417;-79
2023/05/02 03:29:31;;;;;;;41.55;13.90;;;8.90;87.70;;;;;;4995239;28;20136;-79
2023/05/02 03:31:57;;;;;;;31.52;13.15;;;9.00;87.80;;;;;;4992031;28;20505;-79
2023/05/02 03:34:24;;;;;;;39.65;14.40;;;9.00;88.30;;;;;;4998255;28;20056;-80
2023/05/02 03:36:51;;;;;;;35.25;13.88;;;9.00;87.90;;;;;;4998365;28;20421;-79
2023/05/02 03:39:18;;;;;;;35.63;14.85;;;9.10;87.80;;;;;;4999449;28;20054;-79
2023/05/02 03:41:45;;;;;;;37.78;14.48;;;9.10;88.00;;;;;;5000822;28;20056;-79
2023/05/02 03:44:12;;;;;;;35.88;14.23;;;9.10;88.00;;;;;;4998167;28;20053;-78
2023/05/02 03:46:39;;;;;;;37.00;15.65;;;9.20;88.50;;;;;;4994444;28;20049;-78
2023/05/02 03:49:06;;;;;;;42.25;16.30;;;9.30;88.30;;;;;;4995422;28;20050;-78
2023/05/02 03:51:34;;;;;;;36.25;14.93;;;9.30;88.30;;;;;;4989130;28;20052;-79
2023/05/02 03:54:01;;;;;;;45.92;16.75;;;9.30;88.40;;;;;;4992591;28;20462;-79
2023/05/02 03:56:28;;;;;;;38.15;14.85;;;9.40;88.60;;;;;;4997935;28;20111;-79
2023/05/02 03:58:55;;;;;;;37.28;13.98;;;9.40;90.00;;;;;;5002875;28;20270;-79
2023/05/02 04:01:22;;;;;;;40.13;16.33;;;9.40;91.10;;;;;;4996976;28;20060;-78
2023/05/02 04:03:52;;;;;;;36.65;15.70;;;9.40;91.50;;;;;;4994653;28;20105;-79
2023/05/02 04:06:19;;;;;;;36.25;14.80;;;9.40;92.70;;;;;;4994861;28;20053;-78
2023/05/02 04:08:46;;;;;;;39.97;16.33;;;9.40;92.50;;;;;;4996942;28;20058;-79
2023/05/02 04:11:13;;;;;;;42.08;15.95;;;9.40;92.80;;;;;;4993517;28;20153;-79
2023/05/02 04:13:40;;;;;;;39.50;17.05;;;9.40;92.90;;;;;;4994708;28;20057;-79
2023/05/02 04:16:08;;;;;;;36.17;16.27;;;9.40;92.50;;;;;;4993726;28;20049;-79
2023/05/02 04:18:34;;;;;;;37.65;16.50;;;9.40;92.70;;;;;;4993585;28;20054;-78
2023/05/02 04:21:02;;;;;;;23.85;10.45;;;9.40;92.50;;;;;;4999768;28;20046;-79
2023/05/02 04:23:28;;;;;;;20.50;6.13;;;9.30;91.30;;;;;;4995554;28;20058;-78
2023/05/02 04:25:55;;;;;;;14.10;4.15;;;9.00;89.80;;;;;;4990898;28;20065;-79
2023/05/02 04:28:22;;;;;;;11.02;4.25;;;8.70;88.90;;;;;;4994802;28;20320;-79
2023/05/02 04:30:50;;;;;;;17.40;4.75;;;8.60;88.50;;;;;;4994975;28;20646;-79
2023/05/02 04:33:17;;;;;;;21.92;4.90;;;8.40;88.70;;;;;;4998724;28;20053;-79
2023/05/02 04:35:44;;;;;;;23.00;5.05;;;8.20;89.60;;;;;;4997837;28;20046;-79
2023/05/02 04:38:11;;;;;;;19.17;5.13;;;8.00;90.20;;;;;;4999234;28;20050;-79
2023/05/02 04:40:39;;;;;;;24.67;5.40;;;7.90;89.50;;;;;;5001654;28;20333;-79
2023/05/02 04:43:06;;;;;;;23.65;6.13;;;7.90;89.40;;;;;;4993725;28;20046;-79
2023/05/02 04:45:36;;;;;;;21.88;6.07;;;7.90;88.60;;;;;;4997241;28;20490;-79
2023/05/02 04:48:03;;;;;;;26.35;5.07;;;7.90;88.70;;;;;;5000136;28;20125;-79
2023/05/02 04:50:31;;;;;;;24.77;4.38;;;7.90;88.40;;;;;;4997609;28;20100;-79
2023/05/02 04:52:58;;;;;;;31.88;5.10;;;7.80;88.10;;;;;;4994001;28;20506;-79
2023/05/02 04:55:25;;;;;;;28.30;6.03;;;7.90;87.20;;;;;;5000379;28;20045;-79
2023/05/02 04:57:52;;;;;;;27.08;5.15;;;7.90;86.10;;;;;;5004871;28;20045;-78
2023/05/02 05:00:19;;;;;;;30.02;4.32;;;7.90;85.40;;;;;;4993120;28;20495;-79
2023/05/02 05:02:46;;;;;;;37.17;6.00;;;7.80;84.40;;;;;;4996900;28;20140;-78
2023/05/02 05:05:13;;;;;;;19.67;4.15;;;7.70;83.60;;;;;;4993018;28;20136;-79
2023/05/02 05:07:40;;;;;;;32.17;4.30;;;7.70;83.80;;;;;;4999760;28;20387;-79
2023/05/02 05:10:07;;;;;;;24.15;4.50;;;7.70;84.00;;;;;;4996201;28;20423;-79
2023/05/02 05:12:34;;;;;;;25.85;4.97;;;7.70;83.60;;;;;;4997853;28;20053;-79
2023/05/02 05:15:01;;;;;;;27.90;5.78;;;7.70;84.30;;;;;;4992913;28;20077;-80
2023/05/02 05:17:27;;;;;;;26.45;4.50;;;7.80;84.60;;;;;;4989003;28;20432;-82
2023/05/02 05:19:54;;;;;;;28.38;5.43;;;7.80;84.20;;;;;;4994078;28;20050;-84
2023/05/02 05:22:21;;;;;;;33.00;6.60;;;7.80;84.20;;;;;;4999065;28;20771;-78
2023/05/02 05:24:54;;;;;;;34.20;5.88;;;7.80;84.50;;;;;;4989344;28;20061;-78
2023/05/02 05:27:21;;;;;;;34.85;5.90;;;7.80;84.10;;;;;;4995833;28;20477;-77
2023/05/02 05:29:48;;;;;;;18.70;5.65;;;7.70;83.90;;;;;;4994548;28;20046;-80
2023/05/02 05:32:15;;;;;;;30.27;6.10;;;7.70;84.50;;;;;;5007036;28;20045;-86
2023/05/02 05:34:42;;;;;;;35.72;6.10;;;7.70;83.50;;;;;;5004007;28;20169;-88
2023/05/02 05:37:09;;;;;;;18.75;5.25;;;7.70;84.20;;;;;;4998962;28;20057;-83
2023/05/02 05:39:36;;;;;;;24.27;5.00;;;7.60;84.00;;;;;;4997326;28;20050;-82
2023/05/02 05:42:04;;;;;;;25.75;5.13;;;7.70;84.10;;;;;;4989885;28;20049;-78
2023/05/02 05:44:31;;;;;;;22.45;4.97;;;7.80;83.80;;;;;;4984714;28;20050;-77
2023/05/02 05:46:58;;;;;;;29.70;5.05;;;7.80;83.50;;;;;;4994272;28;20498;-76
2023/05/02 05:49:25;;;;;;;29.95;4.70;;;7.90;82.90;;;;;;4999329;28;20452;-76
2023/05/02 05:51:52;;;;;;;32.15;5.47;;;7.80;82.10;;;;;;4990782;28;20049;-76
2023/05/02 05:54:19;;;;;;;31.50;6.00;;;7.90;81.80;;;;;;4989081;28;20046;-76
2023/05/02 05:56:46;;;;;;;36.35;5.07;;;7.90;81.70;;;;;;4993536;28;20048;-76
2023/05/02 05:59:13;;;;;;;22.83;5.15;;;7.90;82.50;;;;;;4999579;28;20059;-76
2023/05/02 06:01:40;;;;;;;33.58;5.53;;;7.80;81.90;;;;;;4997438;28;20585;-76
2023/05/02 06:04:07;;;;;;;19.00;4.53;;;7.70;81.00;;;;;;4993743;28;20050;-75
2023/05/02 06:06:34;;;;;;;29.45;6.15;;;7.70;81.20;;;;;;4997242;28;20494;-76
2023/05/02 06:09:01;;;;;;;33.90;5.13;;;7.70;80.40;;;;;;4997136;28;20050;-76
2023/05/02 06:11:28;;;;;;;20.55;5.38;;;7.70;80.50;;;;;;4995968;28;20058;-76
2023/05/02 06:13:55;;;;;;;29.10;4.82;;;7.60;80.50;;;;;;4997203;28;20077;-76
2023/05/02 06:16:22;;;;;;;19.65;4.50;;;7.60;80.60;;;;;;4996962;28;20097;-76
2023/05/02 06:18:51;;;;;;;24.67;5.30;;;7.50;80.90;;;;;;5004983;28;20056;-76
2023/05/02 06:21:18;;;;;;;25.33;5.20;;;7.50;81.30;;;;;;4995025;28;20406;-76
2023/05/02 06:23:45;;;;;;;24.85;4.75;;;7.50;80.20;;;;;;4992641;28;20078;-76
2023/05/02 06:26:12;;;;;;;31.38;4.72;;;7.50;78.60;;;;;;4983788;28;20499;-76
2023/05/02 06:28:39;;;;;;;17.30;4.32;;;7.60;79.60;;;;;;5002477;28;20057;-76
2023/05/02 06:31:06;;;;;;;21.63;4.70;;;7.90;78.30;;;;;;4993259;28;20153;-76
2023/05/02 06:33:33;;;;;;;17.80;4.03;;;8.00;77.10;;;;;;4994305;28;20049;-76
2023/05/02 06:36:00;;;;;;;18.95;3.90;;;7.90;76.10;;;;;;4989810;28;20729;-76
2023/05/02 06:38:28;;;;;;;14.75;3.35;;;7.90;75.70;;;;;;4988529;28;20054;-76
2023/05/02 06:40:55;;;;;;;12.30;3.50;;;8.00;74.80;;;;;;4999585;28;20046;-76
2023/05/02 06:43:22;;;;;;;23.85;4.70;;;8.10;74.30;;;;;;4995039;28;20050;-74
2023/05/02 06:45:53;;;;;;;32.47;3.88;;;8.20;73.10;;;;;;4992008;28;20405;-75
2023/05/02 06:48:20;;;;;;;19.60;4.35;;;8.20;73.90;;;;;;4991854;28;20046;-74
2023/05/02 06:50:48;;;;;;;29.92;4.15;;;8.40;73.00;;;;;;4993531;28;20054;-74
2023/05/02 06:53:15;;;;;;;18.52;3.90;;;8.30;73.80;;;;;;4992770;28;20168;-75
2023/05/02 06:55:44;;;;;;;16.05;3.95;;;8.50;72.20;;;;;;4996128;28;20054;-75
2023/05/02 06:58:11;;;;;;;22.58;3.63;;;8.50;70.40;;;;;;4995721;28;20076;-75
2023/05/02 07:00:38;;;;;;;23.23;3.55;;;8.40;71.00;;;;;;4993638;28;20491;-74
2023/05/02 07:03:05;;;;;;;17.15;3.13;;;8.40;70.20;;;;;;4996823;28;20154;-75
2023/05/02 07:05:32;;;;;;;17.90;3.20;;;8.60;70.20;;;;;;4989310;28;20129;-75
2023/05/02 07:07:59;;;;;;;17.08;3.15;;;8.60;68.90;;;;;;4992630;28;20045;-75
2023/05/02 07:10:25;;;;;;;16.05;3.50;;;8.60;69.50;;;;;;4992242;28;20052;-74
2023/05/02 07:12:52;;;;;;;17.42;3.08;;;9.10;69.80;;;;;;4992881;28;20060;-74
2023/05/02 07:15:19;;;;;;;19.08;3.10;;;9.60;68.10;;;;;;4982800;28;20050;-73
2023/05/02 07:17:47;;;;;;;14.90;2.67;;;10.30;65.30;;;;;;4996634;28;20050;-74
2023/05/02 07:20:15;;;;;;;9.10;2.22;;;10.20;64.60;;;;;;4991656;28;20161;-74
2023/05/02 07:22:42;;;;;;;21.30;2.80;;;9.90;64.70;;;;;;4990412;28;20525;-76
2023/05/02 07:25:09;;;;;;;17.13;3.35;;;9.50;65.20;;;;;;4990116;28;20448;-75
2023/05/02 07:27:36;;;;;;;22.25;2.90;;;9.50;65.20;;;;;;4991857;28;20049;-75
2023/05/02 07:30:04;;;;;;;22.48;3.33;;;9.40;66.40;;;;;;5000146;28;20050;-75
2023/05/02 07:32:31;;;;;;;17.45;2.80;;;9.30;66.60;;;;;;4995624;28;20057;-75
2023/05/02 07:34:58;;;;;;;15.98;2.85;;;9.30;66.70;;;;;;4995518;28;20073;-75
2023/05/02 07:37:25;;;;;;;18.90;2.88;;;9.10;66.50;;;;;;4985832;28;20384;-75
2023/05/02 07:39:52;;;;;;;11.30;2.60;;;9.10;67.70;;;;;;4998749;28;20392;-76
2023/05/02 07:42:18;;;;;;;18.90;2.58;;;9.10;66.70;;;;;;4991624;28;20050;-75
2023/05/02 07:44:45;;;;;;;16.17;2.88;;;9.00;66.50;;;;;;4998626;28;20073;-75
2023/05/02 07:47:12;;;;;;;13.05;2.85;;;9.10;66.50;;;;;;5001903;28;20050;-75
2023/05/02 07:49:39;;;;;;;16.13;2.85;;;9.00;66.20;;;;;;5005073;28;20042;-75
2023/05/02 07:52:06;;;;;;;33.25;4.50;;;9.40;66.20;;;;;;4995363;28;20050;-75
2023/05/02 07:54:33;;;;;;;20.35;2.95;;;9.30;64.90;;;;;;4992274;28;20058;-75
2023/05/02 07:57:02;;;;;;;16.55;2.83;;;9.00;64.70;;;;;;4995726;28;20398;-75
2023/05/02 07:59:30;;;;;;;12.75;2.38;;;9.10;67.60;;;;;;4997786;28;20068;-75
2023/05/02 08:01:57;;;;;;;8.50;2.30;;;9.60;65.80;;;;;;5000037;28;20270;-75
2023/05/02 08:04:24;;;;;;;12.68;2.38;;;10.20;63.90;;;;;;4998801;28;20368;-76
2023/05/02 08:06:51;;;;;;;18.65;2.65;;;10.40;61.70;;;;;;4987117;28;20057;-75
2023/05/02 08:09:18;;;;;;;13.23;2.92;;;10.50;61.50;;;;;;4993030;28;20446;-75
2023/05/02 08:11:46;;;;;;;9.30;2.85;;;10.20;61.20;;;;;;4994532;28;20119;-75
2023/05/02 08:14:14;;;;;;;20.83;2.90;;;9.90;62.80;;;;;;4992279;28;20045;-75
2023/05/02 08:16:41;;;;;;;13.65;2.28;;;10.20;62.60;;;;;;4994697;28;20116;-75
2023/05/02 08:19:11;;;;;;;9.07;2.67;;;10.20;61.20;;;;;;4994603;28;20053;-76
2023/05/02 08:21:38;;;;;;;12.98;2.38;;;10.00;61.60;;;;;;4995776;28;20061;-76
2023/05/02 08:24:05;;;;;;;15.35;2.00;;;10.10;64.00;;;;;;4992972;28;20479;-77
2023/05/02 08:26:32;;;;;;;10.77;2.35;;;11.00;63.20;;;;;;4991401;28;20058;-76
2023/05/02 08:28:59;;;;;;;16.45;2.33;;;11.40;58.70;;;;;;4996162;28;20050;-76
2023/05/02 08:31:26;;;;;;;9.98;2.08;;;11.00;58.30;;;;;;4995476;28;20846;-77
2023/05/02 08:33:53;;;;;;;8.65;2.35;;;10.90;58.80;;;;;;4987042;28;20825;-75
2023/05/02 08:36:20;;;;;;;14.38;2.08;;;11.20;58.00;;;;;;4999497;28;20079;-75
2023/05/02 08:38:47;;;;;;;13.52;2.47;;;11.00;57.20;;;;;;4987725;28;20054;-75
2023/05/02 08:41:16;;;;;;;10.32;2.45;;;10.80;58.40;;;;;;4990811;28;20470;-75
2023/05/02 08:43:47;;;;;;;8.60;2.00;;;10.80;58.40;;;;;;4990373;28;20124;-75
2023/05/02 08:46:15;;;;;;;12.60;2.63;;;11.30;57.60;;;;;;4989572;28;20046;-75
2023/05/02 08:48:44;;;;;;;9.98;2.70;;;11.50;57.10;;;;;;4998701;28;20530;-75
2023/05/02 08:51:12;;;;;;;10.93;3.00;;;10.90;56.70;;;;;;4991454;28;20050;-75
2023/05/02 08:53:40;;;;;;;12.25;2.35;;;10.70;58.60;;;;;;4996604;28;20081;-75
2023/05/02 08:56:09;;;;;;;10.23;2.85;;;11.60;60.50;;;;;;4987576;28;20112;-75
2023/05/02 08:58:40;;;;;;;10.55;2.17;;;11.80;54.80;;;;;;4995987;28;20053;-74
2023/05/02 09:01:17;;;;;;;18.80;2.90;;;11.40;56.90;;;;;;4998881;28;20049;-75
2023/05/02 09:03:46;;;;;;;6.57;2.30;;;12.20;57.10;;;;;;4984883;28;20046;-75
2023/05/02 09:06:18;;;;;;;11.77;2.65;;;12.40;55.10;;;;;;4994424;28;20050;-75
2023/05/02 09:08:51;;;;;;;12.57;1.95;;;12.50;55.10;;;;;;4995601;28;20794;-75
2023/05/02 09:11:20;;;;;;;16.90;3.03;;;12.70;54.90;;;;;;4994467;28;20447;-75
2023/05/02 09:13:49;;;;;;;13.05;2.47;;;13.40;54.60;;;;;;4985331;28;20137;-75
2023/05/02 09:16:21;;;;;;;21.70;2.42;;;14.00;51.20;;;;;;4999505;28;20054;-75
2023/05/02 09:18:49;;;;;;;10.10;2.25;;;12.90;55.10;;;;;;4990416;28;20045;-74
2023/05/02 09:21:18;;;;;;;9.95;2.50;;;12.80;51.90;;;;;;4998183;28;20402;-75
2023/05/02 09:24:00;;;;;;;15.60;2.40;;;12.30;52.10;;;;;;4988070;28;20561;-75
2023/05/02 09:26:31;;;;;;;11.43;2.08;;;11.50;52.70;;;;;;4988262;28;20046;-74
2023/05/02 09:29:03;;;;;;;13.30;2.17;;;12.00;55.90;;;;;;4998575;28;20148;-75
2023/05/02 09:31:35;;;;;;;10.93;2.42;;;12.70;53.00;;;;;;4989862;28;20574;-75
2023/05/02 09:34:21;;;;;;;15.80;2.30;;;12.70;52.10;;;;;;4993890;28;20459;-75
2023/05/02 09:36:50;;;;;;;13.88;2.70;;;11.80;53.20;;;;;;5001406;28;20050;-74
2023/05/02 09:39:21;;;;;;;8.07;2.10;;;11.80;54.30;;;;;;4992875;28;20056;-74
2023/05/02 09:41:51;;;;;;;7.63;2.28;;;11.90;52.70;;;;;;4998819;28;20046;-74
2023/05/02 09:44:21;;;;;;;9.80;2.63;;;11.90;56.00;;;;;;5003873;28;20057;-74
2023/05/02 09:46:51;;;;;;;9.20;2.47;;;12.90;51.50;;;;;;4989562;28;20049;-75
2023/05/02 09:49:19;;;;;;;11.20;4.15;;;13.70;48.50;;;;;;5000449;28;20406;-74
2023/05/02 09:51:47;;;;;;;11.85;1.98;;;13.40;52.80;;;;;;4994724;28;20053;-75
2023/05/02 09:54:32;;;;;;;9.48;2.28;;;14.00;48.60;;;;;;4996575;28;20382;-75
2023/05/02 09:57:00;;;;;;;;;;;13.00;50.90;;;;;;4989778;28;20050;-75
2023/05/02 09:59:27;;;;;;;8.38;1.90;;;12.60;50.20;;;;;;5005068;28;19937;-74
2023/05/02 10:01:59;;;;;;;9.85;2.58;;;12.10;52.60;;;;;;5000312;28;20058;-75
2023/05/02 10:04:27;;;;;;;10.70;2.58;;;12.00;53.50;;;;;;4993171;28;20541;-75
2023/05/02 10:06:54;;;;;;;6.00;1.92;;;12.80;53.30;;;;;;5002231;28;20057;-75
2023/05/02 10:09:22;;;;;;;14.65;1.85;;;14.30;51.20;;;;;;4995576;28;20205;-75
2023/05/02 10:11:52;;;;;;;9.15;2.10;;;14.90;47.60;;;;;;4997073;28;20054;-75
2023/05/02 10:14:21;;;;;;;12.60;2.05;;;14.30;48.10;;;;;;5000870;28;20116;-75
2023/05/02 10:16:51;;;;;;;18.52;2.65;;;13.70;51.70;;;;;;4992515;28;20045;-74
2023/05/02 10:19:24;;;;;;;16.35;2.50;;;14.80;51.20;;;;;;4993753;28;20052;-75
2023/05/02 10:21:53;;;;;;;8.15;2.60;;;14.60;47.40;;;;;;4993532;28;20074;-75
2023/05/02 10:24:20;;;;;;;15.65;2.47;;;14.00;49.70;;;;;;4993183;28;20553;-75
2023/05/02 10:26:47;;;;;;;19.88;2.55;;;14.30;47.70;;;;;;4993302;28;20042;-75
2023/05/02 10:29:14;;;;;;;12.30;2.40;;;14.10;49.00;;;;;;4989046;28;20447;-75
2023/05/02 10:31:43;;;;;;;10.80;2.10;;;13.80;48.30;;;;;;4999761;28;20061;-76
2023/05/02 10:34:12;;;;;;;9.00;2.33;;;13.90;49.20;;;;;;4997265;28;20799;-78
2023/05/02 10:36:39;;;;;;;7.85;1.88;;;14.70;49.10;;;;;;4986203;28;20089;-76
2023/05/02 10:39:07;;;;;;;10.02;2.17;;;15.90;48.20;;;;;;4990512;28;20129;-76
2023/05/02 10:41:36;;;;;;;7.97;2.38;;;17.00;43.80;;;;;;5001712;28;20149;-76
2023/05/02 10:44:06;;;;;;;11.38;2.28;;;16.50;43.40;;;;;;4994696;28;20505;-76
2023/05/02 10:46:41;;;;;;;6.25;1.98;;;15.10;47.10;;;;;;4995613;28;20066;-77
2023/05/02 10:49:10;;;;;;;7.50;2.08;;;14.80;45.40;;;;;;4994747;28;20066;-76
2023/05/02 10:51:40;;;;;;;8.98;2.17;;;14.10;48.60;;;;;;4994604;28;20058;-75
2023/05/02 10:54:16;;;;;;;8.05;1.80;;;14.20;50.40;;;;;;4992946;28;20049;-75
2023/05/02 10:57:07;;;;;;;18.65;2.30;;;16.00;47.00;;;;;;4993952;28;20056;-75
2023/05/02 10:59:38;;;;;;;6.75;1.77;;;16.20;43.60;;;;;;4992922;28;20188;-76
2023/05/02 11:02:29;;;;;;;11.35;2.80;;;15.60;45.10;;;;;;4996365;28;20056;-75
2023/05/02 11:05:04;;;;;;;13.20;2.55;;;14.70;46.10;;;;;;4981748;28;20050;-75
2023/05/02 11:07:34;;;;;;;13.27;2.42;;;15.60;47.50;;;;;;4988081;28;20136;-75
2023/05/02 11:10:25;;;;;;;9.23;2.15;;;16.30;43.80;;;;;;4994812;28;20058;-75
2023/05/02 11:12:54;;;;;;;14.10;2.05;;;15.40;44.80;;;;;;4981615;28;20606;-75
2023/05/02 11:15:27;;;;;;;11.15;2.47;;;14.90;47.20;;;;;;4998465;28;20046;-75
2023/05/02 11:18:07;;;;;;;15.02;2.22;;;14.80;45.10;;;;;;4985892;28;20459;-75
2023/05/02 11:20:38;;;;;;;5.18;2.10;;;15.40;49.00;;;;;;4994191;28;20152;-75
2023/05/02 11:25:55;;;;;;;4.85;1.90;;;16.50;44.10;;;;;;4995141;28;20100;-75
2023/05/02 11:28:38;;;;;;;12.02;2.60;;;16.90;45.60;;;;;;4987487;28;20042;-75
2023/05/02 11:31:06;;;;;;;8.43;2.90;;;18.10;42.50;;;;;;4991867;28;20050;-75
2023/05/02 11:33:33;;;;;;;14.43;2.72;;;18.10;40.10;;;;;;4999303;28;20527;-75
2023/05/02 11:36:01;;;;;;;8.43;2.80;;;18.10;42.70;;;;;;4984268;28;20060;-75
2023/05/02 11:38:36;;;;;;;10.15;2.92;;;18.10;41.70;;;;;;5000599;28;20057;-76
2023/05/02 11:41:03;;;;;;;9.25;2.55;;;17.00;43.20;;;;;;5000743;28;20049;-76
2023/05/02 11:43:31;;;;;;;6.55;2.15;;;18.50;41.10;;;;;;4985645;28;20493;-75
2023/05/02 11:46:00;;;;;;;8.70;2.50;;;18.50;41.00;;;;;;4987627;28;20046;-76
2023/05/02 11:48:27;;;;;;;10.70;2.33;;;17.10;41.40;;;;;;4993498;28;20129;-75
2023/05/02 11:51:00;;;;;;;13.77;3.20;;;17.50;43.00;;;;;;4991218;28;20056;-76
2023/05/02 11:53:28;;;;;;;29.60;3.67;;;17.50;42.30;;;;;;4994155;28;20061;-76
2023/05/02 11:56:01;;;;;;;12.98;2.95;;;16.10;43.50;;;;;;4989549;28;20062;-75
2023/05/02 11:58:31;;;;;;;15.55;2.63;;;16.60;44.30;;;;;;4983010;28;20061;-75
2023/05/02 12:01:11;;;;;;;9.00;2.20;;;16.90;42.30;;;;;;4998553;28;20096;-75
2023/05/02 12:03:39;;;;;;;8.88;2.47;;;16.20;44.10;;;;;;4992536;28;20051;-75
2023/05/02 12:06:14;;;;;;;6.95;3.50;;;16.60;45.00;;;;;;4990158;28;20077;-75
2023/05/02 12:08:43;;;;;;;11.70;2.78;;;16.40;45.50;;;;;;4993164;28;20058;-75
2023/05/02 12:11:14;;;;;;;13.30;2.53;;;16.30;44.40;;;;;;4995797;28;20513;-74
2023/05/02 12:13:48;;;;;;;10.88;2.47;;;16.20;46.00;;;;;;4991158;28;20057;-75
2023/05/02 12:16:17;;;;;;;6.18;2.00;;;17.10;45.10;;;;;;4987761;28;20058;-75
2023/05/02 12:18:45;;;;;;;8.80;2.42;;;16.80;45.40;;;;;;4984243;28;20059;-75
2023/05/02 12:21:12;;;;;;;12.07;3.38;;;17.60;44.00;;;;;;4996221;28;20054;-75
2023/05/02 12:23:40;;;;;;;7.47;2.25;;;18.80;42.20;;;;;;4999898;28;20046;-75
2023/05/02 12:26:21;;;;;;;5.18;2.30;;;19.40;42.40;;;;;;4988840;28;20078;-75
2023/05/02 12:28:50;;;;;;;9.82;2.15;;;20.60;39.50;;;;;;4986528;28;20124;-75
2023/05/02 12:31:17;;;;;;;11.45;2.75;;;20.80;40.60;;;;;;5001267;28;20161;-76
2023/05/02 12:33:49;;;;;;;7.55;3.08;;;19.90;40.80;;;;;;4997366;28;20058;-75
2023/05/02 12:36:17;;;;;;;8.35;2.33;;;20.00;42.40;;;;;;4994631;28;20053;-75
2023/05/02 12:38:53;;;;;;;12.98;2.42;;;20.50;37.00;;;;;;4990634;28;20065;-75
2023/05/02 12:41:34;;;;;;;10.27;2.28;;;19.20;37.80;;;;;;4993697;28;20053;-76
2023/05/02 12:44:01;;;;;;;9.57;2.47;;;17.70;39.00;;;;;;4987059;28;20046;-75
2023/05/02 12:46:28;;;;;;;10.85;2.55;;;17.40;43.50;;;;;;4990990;28;20064;-75
2023/05/02 12:49:07;;;;;;;5.50;2.08;;;17.80;40.50;;;;;;5001405;28;20054;-75
2023/05/02 12:51:35;;;;;;;10.20;2.33;;;18.50;40.50;;;;;;5000964;28;20426;-75
2023/05/02 12:54:02;;;;;;;8.15;2.05;;;18.50;40.50;;;;;;4997125;28;20081;-75
2023/05/02 12:56:33;;;;;;;5.68;1.98;;;18.70;39.50;;;;;;4995435;28;20054;-75
2023/05/02 12:59:02;;;;;;;7.85;2.25;;;18.70;40.40;;;;;;5004065;28;20089;-76